sensor_id;sensor_type;location;lat;lon;timestamp;pressure;altitude;pressure_sealevel;temperature;humidity
10518;BME280;5307;42.548;22.968;2023-04-10T00:02:21;93896.34;;;5.05;100.00
10518;BME280;5307;42.548;22.968;2023-04-10T00:04:48;93889.81;;;5.02;100.00
10518;BME280;5307;42.548;22.968;2023-04-10T00:07:15;93892.38;;;4.86;100.00
10518;BME280;5307;42.548;22.968;2023-04-10T00:09:42;93892.97;;;4.97;100.00
10518;BME280;5307;42.548;22.968;2023-04-10T00:12:08;93893.13;;;5.14;100.00
10518;BME280;5307;42.548;22.968;2023-04-10T00:14:38;93904.00;;;5.10;100.00
10518;BME280;5307;42.548;22.968;2023-04-10T00:17:06;93895.16;;;5.06;100.00
10518;BME280;5307;42.548;22.968;2023-04-10T00:19:34;93888.66;;;4.76;100.00
10518;BME280;5307;42.548;22.968;2023-04-10T00:22:00;93879.75;;;4.76;100.00
10518;BME280;5307;42.548;22.968;2023-04-10T00:24:27;93879.53;;;4.67;100.00
10518;BME280;5307;42.548;22.968;2023-04-10T00:27:04;93877.88;;;4.46;100.00
10518;BME280;5307;42.548;22.968;2023-04-10T00:29:31;93878.28;;;4.44;100.00
10518;BME280;5307;42.548;22.968;2023-04-10T00:31:59;93876.66;;;4.51;100.00
10518;BME280;5307;42.548;22.968;2023-04-10T00:34:26;93889.22;;;4.37;100.00
10518;BME280;5307;42.548;22.968;2023-04-10T00:36:53;93873.78;;;4.34;100.00
10518;BME280;5307;42.548;22.968;2023-04-10T00:39:20;93876.00;;;4.43;100.00
10518;BME280;5307;42.548;22.968;2023-04-10T00:41:47;93871.09;;;4.61;100.00
10518;BME280;5307;42.548;22.968;2023-04-10T00:44:13;93873.28;;;4.70;100.00
10518;BME280;5307;42.548;22.968;2023-04-10T00:46:40;93863.44;;;4.56;100.00
10518;BME280;5307;42.548;22.968;2023-04-10T00:49:15;93863.91;;;4.21;100.00
10518;BME280;5307;42.548;22.968;2023-04-10T00:51:46;93866.81;;;4.37;100.00
10518;BME280;5307;42.548;22.968;2023-04-10T00:54:13;93865.25;;;4.36;100.00
10518;BME280;5307;42.548;22.968;2023-04-10T00:56:40;93861.72;;;4.42;100.00
10518;BME280;5307;42.548;22.968;2023-04-10T00:59:07;93864.69;;;4.21;100.00
10518;BME280;5307;42.548;22.968;2023-04-10T01:01:34;93863.94;;;4.47;100.00
10518;BME280;5307;42.548;22.968;2023-04-10T01:04:01;93863.03;;;4.31;100.00
10518;BME280;5307;42.548;22.968;2023-04-10T01:06:45;93857.16;;;4.36;100.00
10518;BME280;5307;42.548;22.968;2023-04-10T01:09:27;93865.66;;;4.38;100.00
10518;BME280;5307;42.548;22.968;2023-04-10T01:12:05;93869.53;;;4.33;100.00
10518;BME280;5307;42.548;22.968;2023-04-10T01:14:39;93864.47;;;4.39;100.00
10518;BME280;5307;42.548;22.968;2023-04-10T01:17:12;93868.94;;;4.49;100.00
10518;BME280;5307;42.548;22.968;2023-04-10T01:19:56;93870.88;;;4.48;100.00
10518;BME280;5307;42.548;22.968;2023-04-10T01:22:27;93867.41;;;4.48;100.00
10518;BME280;5307;42.548;22.968;2023-04-10T01:25:16;93867.06;;;4.15;100.00
10518;BME280;5307;42.548;22.968;2023-04-10T01:27:52;93861.13;;;3.97;100.00
10518;BME280;5307;42.548;22.968;2023-04-10T01:30:26;93861.38;;;4.10;100.00
10518;BME280;5307;42.548;22.968;2023-04-10T01:32:54;93868.88;;;3.95;100.00
10518;BME280;5307;42.548;22.968;2023-04-10T01:35:25;93872.75;;;3.94;100.00
10518;BME280;5307;42.548;22.968;2023-04-10T01:37:55;93850.19;;;4.08;100.00
10518;BME280;5307;42.548;22.968;2023-04-10T01:40:24;93860.78;;;4.26;100.00
10518;BME280;5307;42.548;22.968;2023-04-10T01:42:54;93855.38;;;4.26;100.00
10518;BME280;5307;42.548;22.968;2023-04-10T01:45:25;93854.91;;;4.00;100.00
10518;BME280;5307;42.548;22.968;2023-04-10T01:47:53;93865.72;;;4.00;100.00
10518;BME280;5307;42.548;22.968;2023-04-10T01:50:23;93867.75;;;4.23;100.00
10518;BME280;5307;42.548;22.968;2023-04-10T01:52:52;93863.72;;;4.35;100.00
10518;BME280;5307;42.548;22.968;2023-04-10T01:55:21;93862.69;;;4.56;100.00
10518;BME280;5307;42.548;22.968;2023-04-10T01:57:49;93859.59;;;4.27;100.00
10518;BME280;5307;42.548;22.968;2023-04-10T02:00:16;93856.38;;;4.08;100.00
10518;BME280;5307;42.548;22.968;2023-04-10T02:02:45;93857.53;;;4.38;100.00
10518;BME280;5307;42.548;22.968;2023-04-10T02:05:14;93857.34;;;4.52;100.00
10518;BME280;5307;42.548;22.968;2023-04-10T02:07:44;93861.75;;;4.39;100.00
10518;BME280;5307;42.548;22.968;2023-04-10T02:10:15;93849.91;;;4.29;100.00
10518;BME280;5307;42.548;22.968;2023-04-10T02:12:49;93848.47;;;4.48;100.00
10518;BME280;5307;42.548;22.968;2023-04-10T02:15:19;93834.28;;;4.13;100.00
10518;BME280;5307;42.548;22.968;2023-04-10T02:17:50;93842.19;;;4.01;100.00
10518;BME280;5307;42.548;22.968;2023-04-10T02:20:18;93843.81;;;4.22;100.00
10518;BME280;5307;42.548;22.968;2023-04-10T02:22:45;93844.66;;;4.45;100.00
10518;BME280;5307;42.548;22.968;2023-04-10T02:25:12;93842.06;;;4.38;100.00
10518;BME280;5307;42.548;22.968;2023-04-10T02:27:40;93851.44;;;4.30;100.00
10518;BME280;5307;42.548;22.968;2023-04-10T02:30:07;93847.06;;;4.40;100.00
10518;BME280;5307;42.548;22.968;2023-04-10T02:32:35;93842.56;;;4.57;100.00
10518;BME280;5307;42.548;22.968;2023-04-10T02:35:04;93834.66;;;4.69;100.00
10518;BME280;5307;42.548;22.968;2023-04-10T02:37:31;93836.34;;;4.60;100.00
10518;BME280;5307;42.548;22.968;2023-04-10T02:39:59;93833.97;;;4.65;100.00
10518;BME280;5307;42.548;22.968;2023-04-10T02:42:25;93835.38;;;4.73;100.00
10518;BME280;5307;42.548;22.968;2023-04-10T02:44:52;93833.38;;;4.77;100.00
10518;BME280;5307;42.548;22.968;2023-04-10T02:47:19;93825.84;;;4.89;100.00
10518;BME280;5307;42.548;22.968;2023-04-10T02:49:46;93821.97;;;4.90;100.00
10518;BME280;5307;42.548;22.968;2023-04-10T02:52:14;93822.25;;;4.72;100.00
10518;BME280;5307;42.548;22.968;2023-04-10T02:54:41;93806.78;;;4.72;100.00
10518;BME280;5307;42.548;22.968;2023-04-10T02:57:08;93826.19;;;4.91;100.00
10518;BME280;5307;42.548;22.968;2023-04-10T02:59:35;93811.56;;;4.88;100.00
10518;BME280;5307;42.548;22.968;2023-04-10T03:02:02;93817.63;;;4.96;100.00
10518;BME280;5307;42.548;22.968;2023-04-10T03:04:30;93815.09;;;4.85;100.00
10518;BME280;5307;42.548;22.968;2023-04-10T03:06:57;93818.22;;;5.07;100.00
10518;BME280;5307;42.548;22.968;2023-04-10T03:09:26;93810.91;;;5.04;100.00
10518;BME280;5307;42.548;22.968;2023-04-10T03:11:52;93809.03;;;5.01;100.00
10518;BME280;5307;42.548;22.968;2023-04-10T03:14:19;93821.72;;;5.04;100.00
10518;BME280;5307;42.548;22.968;2023-04-10T03:16:46;93809.75;;;4.82;100.00
10518;BME280;5307;42.548;22.968;2023-04-10T03:19:13;93818.47;;;4.93;100.00
10518;BME280;5307;42.548;22.968;2023-04-10T03:21:40;93808.75;;;4.95;100.00
10518;BME280;5307;42.548;22.968;2023-04-10T03:24:06;93797.34;;;5.07;100.00
10518;BME280;5307;42.548;22.968;2023-04-10T03:26:35;93805.97;;;4.99;100.00
10518;BME280;5307;42.548;22.968;2023-04-10T03:29:01;93801.91;;;4.87;100.00
10518;BME280;5307;42.548;22.968;2023-04-10T03:31:29;93809.56;;;4.92;100.00
10518;BME280;5307;42.548;22.968;2023-04-10T03:33:56;93811.09;;;4.93;100.00
10518;BME280;5307;42.548;22.968;2023-04-10T03:36:22;93808.38;;;5.17;100.00
10518;BME280;5307;42.548;22.968;2023-04-10T03:38:49;93812.19;;;5.19;100.00
10518;BME280;5307;42.548;22.968;2023-04-10T03:41:17;93813.84;;;5.13;100.00
10518;BME280;5307;42.548;22.968;2023-04-10T03:43:45;93818.69;;;5.02;100.00
10518;BME280;5307;42.548;22.968;2023-04-10T03:46:12;93825.63;;;5.03;100.00
10518;BME280;5307;42.548;22.968;2023-04-10T03:48:39;93825.41;;;4.94;100.00
10518;BME280;5307;42.548;22.968;2023-04-10T03:51:06;93825.63;;;5.03;100.00
10518;BME280;5307;42.548;22.968;2023-04-10T03:53:33;93829.41;;;5.09;100.00
10518;BME280;5307;42.548;22.968;2023-04-10T03:56:00;93829.75;;;5.11;100.00
10518;BME280;5307;42.548;22.968;2023-04-10T03:58:27;93822.84;;;5.06;100.00
10518;BME280;5307;42.548;22.968;2023-04-10T04:00:55;93813.94;;;4.59;100.00
10518;BME280;5307;42.548;22.968;2023-04-10T04:03:22;93824.41;;;4.57;100.00
10518;BME280;5307;42.548;22.968;2023-04-10T04:05:50;93826.19;;;4.67;100.00
10518;BME280;5307;42.548;22.968;2023-04-10T04:08:17;93829.44;;;4.82;100.00
10518;BME280;5307;42.548;22.968;2023-04-10T04:10:44;93835.06;;;4.91;100.00
10518;BME280;5307;42.548;22.968;2023-04-10T04:13:11;93837.44;;;4.89;100.00
10518;BME280;5307;42.548;22.968;2023-04-10T04:15:37;93841.16;;;4.99;100.00
10518;BME280;5307;42.548;22.968;2023-04-10T04:18:06;93842.09;;;4.89;100.00
10518;BME280;5307;42.548;22.968;2023-04-10T04:20:32;93838.63;;;4.88;100.00
10518;BME280;5307;42.548;22.968;2023-04-10T04:22:59;93842.22;;;4.82;100.00
10518;BME280;5307;42.548;22.968;2023-04-10T04:25:26;93837.72;;;4.71;100.00
10518;BME280;5307;42.548;22.968;2023-04-10T04:27:53;93838.13;;;4.70;100.00
10518;BME280;5307;42.548;22.968;2023-04-10T04:30:20;93845.16;;;4.64;100.00
10518;BME280;5307;42.548;22.968;2023-04-10T04:32:46;93856.31;;;4.69;100.00
10518;BME280;5307;42.548;22.968;2023-04-10T04:35:16;93846.81;;;4.58;100.00
10518;BME280;5307;42.548;22.968;2023-04-10T04:37:42;93852.72;;;4.49;100.00
10518;BME280;5307;42.548;22.968;2023-04-10T04:40:10;93855.66;;;4.31;100.00
10518;BME280;5307;42.548;22.968;2023-04-10T04:42:37;93856.50;;;4.28;100.00
10518;BME280;5307;42.548;22.968;2023-04-10T04:45:05;93858.53;;;4.47;100.00
10518;BME280;5307;42.548;22.968;2023-04-10T04:47:33;93863.66;;;4.92;100.00
10518;BME280;5307;42.548;22.968;2023-04-10T04:50:00;93863.03;;;4.85;100.00
10518;BME280;5307;42.548;22.968;2023-04-10T04:52:28;93862.03;;;4.98;100.00
10518;BME280;5307;42.548;22.968;2023-04-10T04:54:56;93864.34;;;5.00;100.00
10518;BME280;5307;42.548;22.968;2023-04-10T04:57:23;93865.78;;;5.04;100.00
10518;BME280;5307;42.548;22.968;2023-04-10T04:59:50;93872.69;;;5.09;100.00
10518;BME280;5307;42.548;22.968;2023-04-10T05:02:17;93866.22;;;5.26;100.00
10518;BME280;5307;42.548;22.968;2023-04-10T05:04:46;93861.69;;;5.20;100.00
10518;BME280;5307;42.548;22.968;2023-04-10T05:07:13;93864.81;;;5.18;100.00
10518;BME280;5307;42.548;22.968;2023-04-10T05:09:41;93868.97;;;5.46;100.00
10518;BME280;5307;42.548;22.968;2023-04-10T05:12:08;93861.75;;;5.40;100.00
10518;BME280;5307;42.548;22.968;2023-04-10T05:14:35;93864.81;;;5.42;100.00
10518;BME280;5307;42.548;22.968;2023-04-10T05:17:02;93858.09;;;5.26;100.00
10518;BME280;5307;42.548;22.968;2023-04-10T05:19:29;93869.03;;;5.43;100.00
10518;BME280;5307;42.548;22.968;2023-04-10T05:21:56;93859.13;;;5.56;100.00
10518;BME280;5307;42.548;22.968;2023-04-10T05:24:22;93859.72;;;5.44;100.00
10518;BME280;5307;42.548;22.968;2023-04-10T05:26:51;93863.09;;;5.71;100.00
10518;BME280;5307;42.548;22.968;2023-04-10T05:29:18;93865.22;;;5.83;100.00
10518;BME280;5307;42.548;22.968;2023-04-10T05:31:45;93859.97;;;5.96;100.00
10518;BME280;5307;42.548;22.968;2023-04-10T05:34:12;93861.13;;;6.15;100.00
10518;BME280;5307;42.548;22.968;2023-04-10T05:36:38;93860.00;;;6.32;100.00
10518;BME280;5307;42.548;22.968;2023-04-10T05:39:05;93860.44;;;6.47;100.00
10518;BME280;5307;42.548;22.968;2023-04-10T05:41:32;93859.88;;;6.55;100.00
10518;BME280;5307;42.548;22.968;2023-04-10T05:44:00;93860.00;;;6.68;100.00
10518;BME280;5307;42.548;22.968;2023-04-10T05:46:27;93861.00;;;6.74;100.00
10518;BME280;5307;42.548;22.968;2023-04-10T05:48:53;93870.13;;;7.00;100.00
10518;BME280;5307;42.548;22.968;2023-04-10T05:51:20;93864.31;;;6.66;100.00
10518;BME280;5307;42.548;22.968;2023-04-10T05:53:47;93859.75;;;6.63;100.00
10518;BME280;5307;42.548;22.968;2023-04-10T05:56:14;93863.06;;;7.03;100.00
10518;BME280;5307;42.548;22.968;2023-04-10T05:58:41;93855.34;;;7.50;100.00
10518;BME280;5307;42.548;22.968;2023-04-10T06:01:09;93856.47;;;7.36;98.58
10518;BME280;5307;42.548;22.968;2023-04-10T06:03:37;93859.16;;;7.53;96.66
10518;BME280;5307;42.548;22.968;2023-04-10T06:06:06;93846.91;;;7.90;96.03
10518;BME280;5307;42.548;22.968;2023-04-10T06:08:33;93853.50;;;7.76;93.05
10518;BME280;5307;42.548;22.968;2023-04-10T06:11:00;93846.28;;;7.98;92.15
10518;BME280;5307;42.548;22.968;2023-04-10T06:13:26;93836.88;;;8.28;91.50
10518;BME280;5307;42.548;22.968;2023-04-10T06:15:53;93832.13;;;8.32;89.86
10518;BME280;5307;42.548;22.968;2023-04-10T06:18:21;93831.66;;;8.21;88.49
10518;BME280;5307;42.548;22.968;2023-04-10T06:20:48;93829.31;;;8.36;88.46
10518;BME280;5307;42.548;22.968;2023-04-10T06:23:15;93835.03;;;8.25;87.27
10518;BME280;5307;42.548;22.968;2023-04-10T06:25:44;93832.25;;;8.00;87.77
10518;BME280;5307;42.548;22.968;2023-04-10T06:28:11;93829.28;;;8.23;88.81
10518;BME280;5307;42.548;22.968;2023-04-10T06:30:38;93838.16;;;8.11;87.02
10518;BME280;5307;42.548;22.968;2023-04-10T06:33:05;93827.19;;;8.27;87.63
10518;BME280;5307;42.548;22.968;2023-04-10T06:35:33;93821.09;;;8.23;86.89
10518;BME280;5307;42.548;22.968;2023-04-10T06:38:05;93821.22;;;8.20;86.77
10518;BME280;5307;42.548;22.968;2023-04-10T06:40:33;93823.88;;;8.36;86.76
10518;BME280;5307;42.548;22.968;2023-04-10T06:43:05;93815.81;;;8.32;85.61
10518;BME280;5307;42.548;22.968;2023-04-10T06:45:37;93818.06;;;8.21;86.74
10518;BME280;5307;42.548;22.968;2023-04-10T06:48:05;93816.41;;;8.11;87.27
10518;BME280;5307;42.548;22.968;2023-04-10T06:50:42;93835.53;;;8.37;87.83
10518;BME280;5307;42.548;22.968;2023-04-10T06:53:09;93830.09;;;8.37;88.26
10518;BME280;5307;42.548;22.968;2023-04-10T06:55:44;93830.16;;;8.20;87.80
10518;BME280;5307;42.548;22.968;2023-04-10T06:58:11;93819.31;;;7.91;88.03
10518;BME280;5307;42.548;22.968;2023-04-10T07:00:43;93833.50;;;8.24;87.40
10518;BME280;5307;42.548;22.968;2023-04-10T07:03:24;93841.09;;;8.04;87.78
10518;BME280;5307;42.548;22.968;2023-04-10T07:05:56;93812.38;;;8.03;88.21
10518;BME280;5307;42.548;22.968;2023-04-10T07:08:23;93850.13;;;8.14;86.85
10518;BME280;5307;42.548;22.968;2023-04-10T07:10:50;93842.84;;;8.11;86.97
10518;BME280;5307;42.548;22.968;2023-04-10T07:13:20;93844.25;;;8.02;85.58
10518;BME280;5307;42.548;22.968;2023-04-10T07:15:47;93801.59;;;7.70;86.04
10518;BME280;5307;42.548;22.968;2023-04-10T07:18:18;93846.56;;;8.17;85.82
10518;BME280;5307;42.548;22.968;2023-04-10T07:20:49;93844.75;;;7.97;85.94
10518;BME280;5307;42.548;22.968;2023-04-10T07:23:17;93858.94;;;8.05;86.31
10518;BME280;5307;42.548;22.968;2023-04-10T07:25:51;93854.00;;;8.00;85.26
10518;BME280;5307;42.548;22.968;2023-04-10T07:28:17;93844.38;;;8.66;84.12
10518;BME280;5307;42.548;22.968;2023-04-10T07:30:50;93853.50;;;8.34;82.14
10518;BME280;5307;42.548;22.968;2023-04-10T07:33:17;93862.19;;;8.42;82.88
10518;BME280;5307;42.548;22.968;2023-04-10T07:35:47;93848.72;;;8.63;81.41
10518;BME280;5307;42.548;22.968;2023-04-10T07:38:14;93842.84;;;8.65;80.64
10518;BME280;5307;42.548;22.968;2023-04-10T07:40:42;93856.47;;;8.78;81.59
10518;BME280;5307;42.548;22.968;2023-04-10T07:43:17;93848.63;;;8.80;82.05
10518;BME280;5307;42.548;22.968;2023-04-10T07:45:45;93851.03;;;8.90;84.22
10518;BME280;5307;42.548;22.968;2023-04-10T07:48:12;93838.81;;;8.82;82.70
10518;BME280;5307;42.548;22.968;2023-04-10T07:50:39;93852.88;;;8.68;81.73
10518;BME280;5307;42.548;22.968;2023-04-10T07:53:11;93844.03;;;8.51;81.71
10518;BME280;5307;42.548;22.968;2023-04-10T07:55:38;93854.47;;;8.40;80.17
10518;BME280;5307;42.548;22.968;2023-04-10T07:58:20;93866.38;;;8.59;82.07
10518;BME280;5307;42.548;22.968;2023-04-10T08:00:46;93860.69;;;8.53;82.15
10518;BME280;5307;42.548;22.968;2023-04-10T08:03:14;93861.44;;;8.41;82.47
10518;BME280;5307;42.548;22.968;2023-04-10T08:05:50;93857.22;;;8.53;82.71
10518;BME280;5307;42.548;22.968;2023-04-10T08:08:17;93861.44;;;8.54;82.25
10518;BME280;5307;42.548;22.968;2023-04-10T08:10:44;93861.34;;;8.57;82.13
10518;BME280;5307;42.548;22.968;2023-04-10T08:13:11;93858.00;;;8.66;80.77
10518;BME280;5307;42.548;22.968;2023-04-10T08:15:39;93868.19;;;8.37;79.00
10518;BME280;5307;42.548;22.968;2023-04-10T08:18:14;93851.44;;;8.51;80.05
10518;BME280;5307;42.548;22.968;2023-04-10T08:20:41;93860.16;;;8.58;79.14
10518;BME280;5307;42.548;22.968;2023-04-10T08:23:11;93859.06;;;8.69;77.70
10518;BME280;5307;42.548;22.968;2023-04-10T08:25:40;93860.06;;;8.75;77.20
10518;BME280;5307;42.548;22.968;2023-04-10T08:28:07;93853.97;;;8.83;77.72
10518;BME280;5307;42.548;22.968;2023-04-10T08:30:39;93853.00;;;9.03;77.94
10518;BME280;5307;42.548;22.968;2023-04-10T08:33:07;93860.53;;;9.59;77.13
10518;BME280;5307;42.548;22.968;2023-04-10T08:35:46;93846.19;;;9.67;76.04
10518;BME280;5307;42.548;22.968;2023-04-10T08:38:21;93856.09;;;9.39;73.32
10518;BME280;5307;42.548;22.968;2023-04-10T08:41:13;93852.63;;;9.26;71.02
10518;BME280;5307;42.548;22.968;2023-04-10T08:43:53;93852.56;;;9.51;71.89
10518;BME280;5307;42.548;22.968;2023-04-10T08:46:32;93844.31;;;9.42;71.18
10518;BME280;5307;42.548;22.968;2023-04-10T08:49:03;93848.66;;;9.52;72.51
10518;BME280;5307;42.548;22.968;2023-04-10T08:51:32;93842.66;;;9.79;72.98
10518;BME280;5307;42.548;22.968;2023-04-10T08:54:09;93853.22;;;9.56;72.38
10518;BME280;5307;42.548;22.968;2023-04-10T08:56:40;93838.00;;;9.45;71.56
10518;BME280;5307;42.548;22.968;2023-04-10T08:59:17;93838.72;;;9.59;72.67
10518;BME280;5307;42.548;22.968;2023-04-10T09:01:44;93841.94;;;9.66;71.69
10518;BME280;5307;42.548;22.968;2023-04-10T09:04:13;93840.19;;;9.72;71.74
10518;BME280;5307;42.548;22.968;2023-04-10T09:06:44;93842.84;;;9.63;68.33
10518;BME280;5307;42.548;22.968;2023-04-10T09:09:11;93830.47;;;9.37;68.38
10518;BME280;5307;42.548;22.968;2023-04-10T09:12:02;93836.00;;;9.59;69.15
10518;BME280;5307;42.548;22.968;2023-04-10T09:14:33;93835.28;;;9.67;67.79
10518;BME280;5307;42.548;22.968;2023-04-10T09:17:16;93835.88;;;9.62;67.08
10518;BME280;5307;42.548;22.968;2023-04-10T09:19:53;93831.56;;;9.74;67.79
10518;BME280;5307;42.548;22.968;2023-04-10T09:22:34;93823.03;;;9.50;67.72
10518;BME280;5307;42.548;22.968;2023-04-10T09:25:02;93830.19;;;9.57;67.04
10518;BME280;5307;42.548;22.968;2023-04-10T09:27:31;93821.75;;;9.76;68.21
10518;BME280;5307;42.548;22.968;2023-04-10T09:30:03;93816.06;;;9.71;69.34
10518;BME280;5307;42.548;22.968;2023-04-10T09:32:42;93827.06;;;9.58;67.61
10518;BME280;5307;42.548;22.968;2023-04-10T09:35:18;93804.63;;;9.41;66.55
10518;BME280;5307;42.548;22.968;2023-04-10T09:37:45;93816.56;;;9.57;66.89
10518;BME280;5307;42.548;22.968;2023-04-10T09:40:30;93821.97;;;9.35;66.06
10518;BME280;5307;42.548;22.968;2023-04-10T09:43:16;93836.19;;;9.30;64.23
10518;BME280;5307;42.548;22.968;2023-04-10T09:45:53;93833.00;;;9.31;64.71
10518;BME280;5307;42.548;22.968;2023-04-10T09:48:21;93838.94;;;9.51;64.29
10518;BME280;5307;42.548;22.968;2023-04-10T09:51:18;93819.44;;;9.40;65.23
10518;BME280;5307;42.548;22.968;2023-04-10T09:53:54;93817.81;;;9.43;63.94
10518;BME280;5307;42.548;22.968;2023-04-10T09:56:22;93806.41;;;9.35;64.42
10518;BME280;5307;42.548;22.968;2023-04-10T09:59:00;93809.91;;;9.23;63.97
10518;BME280;5307;42.548;22.968;2023-04-10T10:01:40;93828.63;;;9.34;64.34
10518;BME280;5307;42.548;22.968;2023-04-10T10:04:07;93825.41;;;9.61;64.56
10518;BME280;5307;42.548;22.968;2023-04-10T10:06:44;93814.56;;;9.35;63.51
10518;BME280;5307;42.548;22.968;2023-04-10T10:09:28;93820.50;;;9.56;63.92
10518;BME280;5307;42.548;22.968;2023-04-10T10:12:05;93835.72;;;9.44;61.92
10518;BME280;5307;42.548;22.968;2023-04-10T10:14:42;93815.81;;;9.56;62.16
10518;BME280;5307;42.548;22.968;2023-04-10T10:17:17;93820.50;;;9.56;62.17
10518;BME280;5307;42.548;22.968;2023-04-10T10:19:52;93813.78;;;9.69;63.62
10518;BME280;5307;42.548;22.968;2023-04-10T10:22:35;93809.91;;;9.92;64.69
10518;BME280;5307;42.548;22.968;2023-04-10T10:25:03;93815.31;;;9.70;62.72
10518;BME280;5307;42.548;22.968;2023-04-10T10:27:30;93817.66;;;9.59;62.66
10518;BME280;5307;42.548;22.968;2023-04-10T10:30:00;93804.31;;;9.74;62.63
10518;BME280;5307;42.548;22.968;2023-04-10T10:32:28;93802.03;;;9.72;62.30
10518;BME280;5307;42.548;22.968;2023-04-10T10:35:02;93812.94;;;9.72;62.82
10518;BME280;5307;42.548;22.968;2023-04-10T10:37:33;93800.81;;;9.39;60.30
10518;BME280;5307;42.548;22.968;2023-04-10T10:40:04;93806.22;;;9.51;62.02
10518;BME280;5307;42.548;22.968;2023-04-10T10:45:38;93796.09;;;9.52;62.05
10518;BME280;5307;42.548;22.968;2023-04-10T10:48:19;93807.53;;;9.60;61.58
10518;BME280;5307;42.548;22.968;2023-04-10T10:51:15;93799.16;;;9.76;60.85
10518;BME280;5307;42.548;22.968;2023-04-10T10:53:46;93772.31;;;9.52;57.91
10518;BME280;5307;42.548;22.968;2023-04-10T10:56:32;93779.94;;;9.79;58.15
10518;BME280;5307;42.548;22.968;2023-04-10T10:59:02;93784.16;;;9.71;57.11
10518;BME280;5307;42.548;22.968;2023-04-10T11:01:29;93776.16;;;9.77;56.84
10518;BME280;5307;42.548;22.968;2023-04-10T11:03:55;93780.91;;;9.86;56.80
10518;BME280;5307;42.548;22.968;2023-04-10T11:06:48;93767.13;;;9.89;57.42
10518;BME280;5307;42.548;22.968;2023-04-10T11:09:55;93767.53;;;10.00;56.71
10518;BME280;5307;42.548;22.968;2023-04-10T11:12:23;93766.66;;;10.12;56.55
10518;BME280;5307;42.548;22.968;2023-04-10T11:14:58;93763.00;;;10.06;58.68
10518;BME280;5307;42.548;22.968;2023-04-10T11:17:47;93754.41;;;10.39;61.88
10518;BME280;5307;42.548;22.968;2023-04-10T11:20:25;93746.19;;;10.08;64.71
10518;BME280;5307;42.548;22.968;2023-04-10T11:23:23;93755.09;;;9.99;66.46
10518;BME280;5307;42.548;22.968;2023-04-10T11:25:59;93745.69;;;10.00;68.12
10518;BME280;5307;42.548;22.968;2023-04-10T11:28:36;93748.59;;;10.28;69.69
10518;BME280;5307;42.548;22.968;2023-04-10T11:31:22;93738.72;;;9.99;68.97
10518;BME280;5307;42.548;22.968;2023-04-10T11:34:20;93745.94;;;9.93;68.65
10518;BME280;5307;42.548;22.968;2023-04-10T11:36:47;93747.84;;;9.83;68.35
10518;BME280;5307;42.548;22.968;2023-04-10T11:39:22;93748.72;;;10.02;67.43
10518;BME280;5307;42.548;22.968;2023-04-10T11:41:52;93739.59;;;9.96;66.51
10518;BME280;5307;42.548;22.968;2023-04-10T11:44:32;93731.84;;;10.17;67.37
10518;BME280;5307;42.548;22.968;2023-04-10T11:47:19;93730.88;;;10.32;66.54
10518;BME280;5307;42.548;22.968;2023-04-10T11:49:57;93731.69;;;10.51;65.31
10518;BME280;5307;42.548;22.968;2023-04-10T11:52:24;93735.28;;;10.39;63.77
10518;BME280;5307;42.548;22.968;2023-04-10T11:55:04;93735.34;;;10.48;65.26
10518;BME280;5307;42.548;22.968;2023-04-10T11:57:36;93728.97;;;10.51;63.09
10518;BME280;5307;42.548;22.968;2023-04-10T12:00:21;93725.59;;;10.38;62.06
10518;BME280;5307;42.548;22.968;2023-04-10T12:02:52;93719.09;;;10.45;62.19
10518;BME280;5307;42.548;22.968;2023-04-10T12:05:19;93720.56;;;10.36;60.57
10518;BME280;5307;42.548;22.968;2023-04-10T12:07:47;93701.25;;;10.62;59.46
10518;BME280;5307;42.548;22.968;2023-04-10T12:10:15;93696.44;;;10.75;59.02
10518;BME280;5307;42.548;22.968;2023-04-10T12:12:43;93715.88;;;10.86;58.45
10518;BME280;5307;42.548;22.968;2023-04-10T12:15:26;93706.91;;;10.77;58.43
10518;BME280;5307;42.548;22.968;2023-04-10T12:17:53;93703.53;;;10.63;60.65
10518;BME280;5307;42.548;22.968;2023-04-10T12:20:21;93724.22;;;10.33;66.67
10518;BME280;5307;42.548;22.968;2023-04-10T12:22:52;93714.56;;;10.20;69.75
10518;BME280;5307;42.548;22.968;2023-04-10T12:25:20;93726.28;;;9.76;72.92
10518;BME280;5307;42.548;22.968;2023-04-10T12:27:48;93714.66;;;9.85;75.45
10518;BME280;5307;42.548;22.968;2023-04-10T12:30:16;93703.09;;;9.72;73.37
10518;BME280;5307;42.548;22.968;2023-04-10T12:32:50;93703.34;;;9.65;75.44
10518;BME280;5307;42.548;22.968;2023-04-10T12:35:38;93702.91;;;9.97;74.81
10518;BME280;5307;42.548;22.968;2023-04-10T12:38:06;93699.19;;;9.82;71.70
10518;BME280;5307;42.548;22.968;2023-04-10T12:40:33;93695.69;;;10.03;71.62
10518;BME280;5307;42.548;22.968;2023-04-10T12:43:01;93685.69;;;10.09;68.43
10518;BME280;5307;42.548;22.968;2023-04-10T12:45:41;93690.41;;;10.09;64.87
10518;BME280;5307;42.548;22.968;2023-04-10T12:48:08;93690.84;;;10.07;64.24
10518;BME280;5307;42.548;22.968;2023-04-10T12:50:45;93677.19;;;10.29;64.47
10518;BME280;5307;42.548;22.968;2023-04-10T12:53:12;93684.19;;;10.39;63.87
10518;BME280;5307;42.548;22.968;2023-04-10T12:55:39;93688.78;;;10.21;63.81
10518;BME280;5307;42.548;22.968;2023-04-10T12:58:17;93685.69;;;10.00;64.69
10518;BME280;5307;42.548;22.968;2023-04-10T13:00:45;93680.53;;;10.02;67.18
10518;BME280;5307;42.548;22.968;2023-04-10T13:03:12;93683.25;;;10.02;67.43
10518;BME280;5307;42.548;22.968;2023-04-10T13:05:39;93673.19;;;9.90;66.87
10518;BME280;5307;42.548;22.968;2023-04-10T13:08:06;93687.69;;;10.09;67.86
10518;BME280;5307;42.548;22.968;2023-04-10T13:10:33;93678.97;;;9.92;66.95
10518;BME280;5307;42.548;22.968;2023-04-10T13:13:01;93691.22;;;9.88;69.82
10518;BME280;5307;42.548;22.968;2023-04-10T13:15:29;93695.75;;;9.60;71.86
10518;BME280;5307;42.548;22.968;2023-04-10T13:17:58;93696.94;;;9.15;73.17
10518;BME280;5307;42.548;22.968;2023-04-10T13:20:26;93704.50;;;8.85;76.81
10518;BME280;5307;42.548;22.968;2023-04-10T13:22:53;93707.97;;;8.51;77.32
10518;BME280;5307;42.548;22.968;2023-04-10T13:25:19;93711.13;;;8.50;78.38
10518;BME280;5307;42.548;22.968;2023-04-10T13:27:47;93715.88;;;8.71;78.84